sensor_id;sensor_type;location;lat;lon;timestamp;temperature;humidity
34646;DHT22;20857;47.808;12.482;2023-07-29T00:00:22;16.70;99.90
34646;DHT22;20857;47.808;12.482;2023-07-29T00:02:47;16.70;99.90
34646;DHT22;20857;47.808;12.482;2023-07-29T00:05:13;16.70;99.90
34646;DHT22;20857;47.808;12.482;2023-07-29T00:07:39;16.70;99.90
34646;DHT22;20857;47.808;12.482;2023-07-29T00:10:05;16.70;99.90
34646;DHT22;20857;47.808;12.482;2023-07-29T00:12:30;16.80;99.90
34646;DHT22;20857;47.808;12.482;2023-07-29T00:14:56;16.80;99.90
34646;DHT22;20857;47.808;12.482;2023-07-29T00:17:21;16.70;99.90
34646;DHT22;20857;47.808;12.482;2023-07-29T00:19:47;16.80;99.90
34646;DHT22;20857;47.808;12.482;2023-07-29T00:22:13;16.80;99.90
34646;DHT22;20857;47.808;12.482;2023-07-29T00:24:39;16.70;99.90
34646;DHT22;20857;47.808;12.482;2023-07-29T00:27:05;16.80;99.90
34646;DHT22;20857;47.808;12.482;2023-07-29T00:29:31;16.80;99.90
34646;DHT22;20857;47.808;12.482;2023-07-29T00:31:56;16.80;99.90
34646;DHT22;20857;47.808;12.482;2023-07-29T00:34:22;16.80;99.90
34646;DHT22;20857;47.808;12.482;2023-07-29T00:36:47;16.80;99.90
34646;DHT22;20857;47.808;12.482;2023-07-29T00:39:13;16.80;99.90
34646;DHT22;20857;47.808;12.482;2023-07-29T00:41:39;16.70;99.90
34646;DHT22;20857;47.808;12.482;2023-07-29T00:44:05;16.60;99.90
34646;DHT22;20857;47.808;12.482;2023-07-29T00:46:32;16.60;99.90
34646;DHT22;20857;47.808;12.482;2023-07-29T00:48:58;16.60;99.90
34646;DHT22;20857;47.808;12.482;2023-07-29T00:51:24;16.60;99.90
34646;DHT22;20857;47.808;12.482;2023-07-29T00:53:50;16.60;99.90
34646;DHT22;20857;47.808;12.482;2023-07-29T00:56:15;16.60;99.90
34646;DHT22;20857;47.808;12.482;2023-07-29T00:58:41;16.60;99.90
34646;DHT22;20857;47.808;12.482;2023-07-29T01:01:07;16.50;99.90
34646;DHT22;20857;47.808;12.482;2023-07-29T01:03:33;16.50;99.90
34646;DHT22;20857;47.808;12.482;2023-07-29T01:06:15;16.50;99.90
34646;DHT22;20857;47.808;12.482;2023-07-29T01:11:33;16.50;99.90
34646;DHT22;20857;47.808;12.482;2023-07-29T01:14:05;16.50;99.90
34646;DHT22;20857;47.808;12.482;2023-07-29T01:16:42;16.50;99.90
34646;DHT22;20857;47.808;12.482;2023-07-29T01:19:25;16.60;99.90
34646;DHT22;20857;47.808;12.482;2023-07-29T01:21:54;16.60;99.90
34646;DHT22;20857;47.808;12.482;2023-07-29T01:24:20;16.60;99.90
34646;DHT22;20857;47.808;12.482;2023-07-29T01:26:46;16.60;99.90
34646;DHT22;20857;47.808;12.482;2023-07-29T01:29:11;16.60;99.90
34646;DHT22;20857;47.808;12.482;2023-07-29T01:31:42;16.60;99.90
34646;DHT22;20857;47.808;12.482;2023-07-29T01:34:28;16.60;99.90
34646;DHT22;20857;47.808;12.482;2023-07-29T01:36:57;16.60;99.90
34646;DHT22;20857;47.808;12.482;2023-07-29T01:39:25;16.60;99.90
34646;DHT22;20857;47.808;12.482;2023-07-29T01:41:51;16.60;99.90
34646;DHT22;20857;47.808;12.482;2023-07-29T01:44:18;16.60;99.90
34646;DHT22;20857;47.808;12.482;2023-07-29T01:46:44;16.60;99.90
34646;DHT22;20857;47.808;12.482;2023-07-29T01:49:10;16.60;99.90
34646;DHT22;20857;47.808;12.482;2023-07-29T01:51:36;16.60;99.90
34646;DHT22;20857;47.808;12.482;2023-07-29T01:54:01;16.60;99.90
34646;DHT22;20857;47.808;12.482;2023-07-29T01:56:27;16.60;99.90
34646;DHT22;20857;47.808;12.482;2023-07-29T01:58:52;16.60;99.90
34646;DHT22;20857;47.808;12.482;2023-07-29T02:01:18;16.60;99.90
34646;DHT22;20857;47.808;12.482;2023-07-29T02:03:43;16.60;99.90
34646;DHT22;20857;47.808;12.482;2023-07-29T02:06:09;16.50;99.90
34646;DHT22;20857;47.808;12.482;2023-07-29T02:08:35;16.40;99.90
34646;DHT22;20857;47.808;12.482;2023-07-29T02:11:00;16.40;99.90
34646;DHT22;20857;47.808;12.482;2023-07-29T02:13:26;16.40;99.90
34646;DHT22;20857;47.808;12.482;2023-07-29T02:15:52;16.40;99.90
34646;DHT22;20857;47.808;12.482;2023-07-29T02:18:17;16.30;99.90
34646;DHT22;20857;47.808;12.482;2023-07-29T02:20:43;16.40;99.90
34646;DHT22;20857;47.808;12.482;2023-07-29T02:23:15;16.30;99.90
34646;DHT22;20857;47.808;12.482;2023-07-29T02:25:41;16.40;99.90
34646;DHT22;20857;47.808;12.482;2023-07-29T02:28:06;16.30;99.90
34646;DHT22;20857;47.808;12.482;2023-07-29T02:30:32;16.30;99.90
34646;DHT22;20857;47.808;12.482;2023-07-29T02:32:58;16.30;99.90
34646;DHT22;20857;47.808;12.482;2023-07-29T02:35:25;16.30;99.90
34646;DHT22;20857;47.808;12.482;2023-07-29T02:37:50;16.30;99.90
34646;DHT22;20857;47.808;12.482;2023-07-29T02:40:16;16.40;99.90
34646;DHT22;20857;47.808;12.482;2023-07-29T02:42:41;16.50;99.90
34646;DHT22;20857;47.808;12.482;2023-07-29T02:48:28;16.50;99.90
34646;DHT22;20857;47.808;12.482;2023-07-29T02:50:55;16.50;99.90
34646;DHT22;20857;47.808;12.482;2023-07-29T02:53:22;16.50;99.90
34646;DHT22;20857;47.808;12.482;2023-07-29T02:55:48;16.50;99.90
34646;DHT22;20857;47.808;12.482;2023-07-29T02:58:14;16.40;99.90
34646;DHT22;20857;47.808;12.482;2023-07-29T03:00:39;16.40;99.90
34646;DHT22;20857;47.808;12.482;2023-07-29T03:03:07;16.50;99.90
34646;DHT22;20857;47.808;12.482;2023-07-29T03:05:33;16.50;99.90
34646;DHT22;20857;47.808;12.482;2023-07-29T03:07:59;16.50;99.90
34646;DHT22;20857;47.808;12.482;2023-07-29T03:10:25;16.50;99.90
34646;DHT22;20857;47.808;12.482;2023-07-29T03:12:50;16.50;99.90
34646;DHT22;20857;47.808;12.482;2023-07-29T03:15:16;16.60;99.90
34646;DHT22;20857;47.808;12.482;2023-07-29T03:17:42;16.60;99.90
34646;DHT22;20857;47.808;12.482;2023-07-29T03:20:08;16.60;99.90
34646;DHT22;20857;47.808;12.482;2023-07-29T03:22:33;16.60;99.90
34646;DHT22;20857;47.808;12.482;2023-07-29T03:24:59;16.60;99.90
34646;DHT22;20857;47.808;12.482;2023-07-29T03:30:47;16.60;99.90
34646;DHT22;20857;47.808;12.482;2023-07-29T03:33:12;16.60;99.90
34646;DHT22;20857;47.808;12.482;2023-07-29T03:35:38;16.50;99.90
34646;DHT22;20857;47.808;12.482;2023-07-29T03:38:03;16.50;99.90
34646;DHT22;20857;47.808;12.482;2023-07-29T03:40:29;16.50;99.90
34646;DHT22;20857;47.808;12.482;2023-07-29T03:42:54;16.40;99.90
34646;DHT22;20857;47.808;12.482;2023-07-29T03:45:20;16.40;99.90
34646;DHT22;20857;47.808;12.482;2023-07-29T03:47:46;16.50;99.90
34646;DHT22;20857;47.808;12.482;2023-07-29T03:50:11;16.40;99.90
34646;DHT22;20857;47.808;12.482;2023-07-29T03:52:37;16.40;99.90
34646;DHT22;20857;47.808;12.482;2023-07-29T03:55:03;16.40;99.90
34646;DHT22;20857;47.808;12.482;2023-07-29T03:57:28;16.50;99.90
34646;DHT22;20857;47.808;12.482;2023-07-29T03:59:55;16.50;99.90
34646;DHT22;20857;47.808;12.482;2023-07-29T04:02:20;16.60;99.90
34646;DHT22;20857;47.808;12.482;2023-07-29T04:04:46;16.60;99.90
34646;DHT22;20857;47.808;12.482;2023-07-29T04:07:13;16.70;99.90
34646;DHT22;20857;47.808;12.482;2023-07-29T04:09:39;16.80;99.90
34646;DHT22;20857;47.808;12.482;2023-07-29T04:12:05;16.90;99.90
34646;DHT22;20857;47.808;12.482;2023-07-29T04:14:31;16.90;99.90
34646;DHT22;20857;47.808;12.482;2023-07-29T04:16:56;17.00;99.90
34646;DHT22;20857;47.808;12.482;2023-07-29T04:19:22;17.00;99.90
34646;DHT22;20857;47.808;12.482;2023-07-29T04:21:47;17.00;99.90
34646;DHT22;20857;47.808;12.482;2023-07-29T04:24:13;17.00;99.90
34646;DHT22;20857;47.808;12.482;2023-07-29T04:26:38;17.10;99.90
34646;DHT22;20857;47.808;12.482;2023-07-29T04:29:05;17.10;99.90
34646;DHT22;20857;47.808;12.482;2023-07-29T04:31:30;17.20;99.90
34646;DHT22;20857;47.808;12.482;2023-07-29T04:33:56;17.30;99.90
34646;DHT22;20857;47.808;12.482;2023-07-29T04:36:21;17.40;99.90
34646;DHT22;20857;47.808;12.482;2023-07-29T04:38:47;17.40;99.90
34646;DHT22;20857;47.808;12.482;2023-07-29T04:41:12;17.50;99.90
34646;DHT22;20857;47.808;12.482;2023-07-29T04:43:38;17.40;99.90
34646;DHT22;20857;47.808;12.482;2023-07-29T04:46:07;17.40;99.90
34646;DHT22;20857;47.808;12.482;2023-07-29T04:48:33;17.40;99.90
34646;DHT22;20857;47.808;12.482;2023-07-29T04:50:59;17.40;99.90
34646;DHT22;20857;47.808;12.482;2023-07-29T04:53:25;17.40;99.90
34646;DHT22;20857;47.808;12.482;2023-07-29T04:55:50;17.50;99.90
34646;DHT22;20857;47.808;12.482;2023-07-29T04:58:16;17.50;99.90
34646;DHT22;20857;47.808;12.482;2023-07-29T05:00:41;17.50;99.90
34646;DHT22;20857;47.808;12.482;2023-07-29T05:03:07;17.50;99.90
34646;DHT22;20857;47.808;12.482;2023-07-29T05:05:32;17.60;99.90
34646;DHT22;20857;47.808;12.482;2023-07-29T05:07:58;17.80;99.90
34646;DHT22;20857;47.808;12.482;2023-07-29T05:10:24;17.90;99.90
34646;DHT22;20857;47.808;12.482;2023-07-29T05:12:50;18.00;99.90
34646;DHT22;20857;47.808;12.482;2023-07-29T05:15:15;18.10;99.90
34646;DHT22;20857;47.808;12.482;2023-07-29T05:17:41;18.20;99.90
34646;DHT22;20857;47.808;12.482;2023-07-29T05:20:07;18.20;99.90
34646;DHT22;20857;47.808;12.482;2023-07-29T05:22:33;18.20;99.90
34646;DHT22;20857;47.808;12.482;2023-07-29T05:24:58;18.30;99.90
34646;DHT22;20857;47.808;12.482;2023-07-29T05:30:46;18.40;99.90
34646;DHT22;20857;47.808;12.482;2023-07-29T05:33:11;18.40;99.90
34646;DHT22;20857;47.808;12.482;2023-07-29T05:35:37;18.40;99.90
34646;DHT22;20857;47.808;12.482;2023-07-29T05:38:02;18.40;99.90
34646;DHT22;20857;47.808;12.482;2023-07-29T05:40:30;18.40;99.90
34646;DHT22;20857;47.808;12.482;2023-07-29T05:42:56;18.40;99.90
34646;DHT22;20857;47.808;12.482;2023-07-29T05:45:21;18.30;99.90
34646;DHT22;20857;47.808;12.482;2023-07-29T05:47:47;18.40;99.90
34646;DHT22;20857;47.808;12.482;2023-07-29T05:50:13;18.40;99.90
34646;DHT22;20857;47.808;12.482;2023-07-29T05:52:38;18.40;99.90
34646;DHT22;20857;47.808;12.482;2023-07-29T05:55:04;18.50;99.90
34646;DHT22;20857;47.808;12.482;2023-07-29T05:57:30;18.60;99.90
34646;DHT22;20857;47.808;12.482;2023-07-29T05:59:55;18.80;99.90
34646;DHT22;20857;47.808;12.482;2023-07-29T06:02:21;18.80;99.90
34646;DHT22;20857;47.808;12.482;2023-07-29T06:04:47;19.00;99.90
34646;DHT22;20857;47.808;12.482;2023-07-29T06:07:12;19.10;99.90
34646;DHT22;20857;47.808;12.482;2023-07-29T06:09:38;19.20;99.90
34646;DHT22;20857;47.808;12.482;2023-07-29T06:12:04;19.30;99.90
34646;DHT22;20857;47.808;12.482;2023-07-29T06:14:30;19.50;99.90
34646;DHT22;20857;47.808;12.482;2023-07-29T06:16:55;19.70;99.90
34646;DHT22;20857;47.808;12.482;2023-07-29T06:19:21;19.70;99.90
34646;DHT22;20857;47.808;12.482;2023-07-29T06:21:46;19.60;99.90
34646;DHT22;20857;47.808;12.482;2023-07-29T06:24:12;19.40;99.90
34646;DHT22;20857;47.808;12.482;2023-07-29T06:26:38;19.40;99.90
34646;DHT22;20857;47.808;12.482;2023-07-29T06:29:04;19.30;99.90
34646;DHT22;20857;47.808;12.482;2023-07-29T06:31:29;19.30;99.90
34646;DHT22;20857;47.808;12.482;2023-07-29T06:33:55;19.30;99.90
34646;DHT22;20857;47.808;12.482;2023-07-29T06:36:21;19.40;99.90
34646;DHT22;20857;47.808;12.482;2023-07-29T06:38:47;19.50;99.90
34646;DHT22;20857;47.808;12.482;2023-07-29T06:41:12;19.70;99.90
34646;DHT22;20857;47.808;12.482;2023-07-29T06:43:38;19.90;99.90
34646;DHT22;20857;47.808;12.482;2023-07-29T06:46:03;20.00;99.90
34646;DHT22;20857;47.808;12.482;2023-07-29T06:48:29;20.20;99.90
34646;DHT22;20857;47.808;12.482;2023-07-29T06:50:55;20.50;99.90
34646;DHT22;20857;47.808;12.482;2023-07-29T06:53:21;20.70;99.90
34646;DHT22;20857;47.808;12.482;2023-07-29T06:55:46;20.80;99.90
34646;DHT22;20857;47.808;12.482;2023-07-29T06:58:12;20.90;99.90
34646;DHT22;20857;47.808;12.482;2023-07-29T07:00:38;20.80;99.90
34646;DHT22;20857;47.808;12.482;2023-07-29T07:03:03;20.90;99.90
34646;DHT22;20857;47.808;12.482;2023-07-29T07:05:29;20.80;99.90
34646;DHT22;20857;47.808;12.482;2023-07-29T07:07:54;20.80;99.90
34646;DHT22;20857;47.808;12.482;2023-07-29T07:10:20;20.60;99.90
34646;DHT22;20857;47.808;12.482;2023-07-29T07:12:45;20.50;99.90
34646;DHT22;20857;47.808;12.482;2023-07-29T07:15:11;20.20;99.90
34646;DHT22;20857;47.808;12.482;2023-07-29T07:17:36;20.00;99.90
34646;DHT22;20857;47.808;12.482;2023-07-29T07:20:02;19.70;99.90
34646;DHT22;20857;47.808;12.482;2023-07-29T07:22:29;19.60;99.90
34646;DHT22;20857;47.808;12.482;2023-07-29T07:24:54;19.40;99.90
34646;DHT22;20857;47.808;12.482;2023-07-29T07:27:20;19.10;99.90
34646;DHT22;20857;47.808;12.482;2023-07-29T07:29:45;18.90;99.90
34646;DHT22;20857;47.808;12.482;2023-07-29T07:32:11;18.80;99.90
34646;DHT22;20857;47.808;12.482;2023-07-29T07:34:37;18.80;99.90
34646;DHT22;20857;47.808;12.482;2023-07-29T07:37:02;18.90;99.90
34646;DHT22;20857;47.808;12.482;2023-07-29T07:39:29;19.00;99.90
34646;DHT22;20857;47.808;12.482;2023-07-29T07:41:55;19.00;99.90
34646;DHT22;20857;47.808;12.482;2023-07-29T07:44:21;19.10;99.90
34646;DHT22;20857;47.808;12.482;2023-07-29T07:46:46;19.10;99.90
34646;DHT22;20857;47.808;12.482;2023-07-29T07:49:12;19.20;99.90
34646;DHT22;20857;47.808;12.482;2023-07-29T07:51:38;19.30;99.90
34646;DHT22;20857;47.808;12.482;2023-07-29T07:54:04;19.50;99.90
34646;DHT22;20857;47.808;12.482;2023-07-29T07:56:30;19.70;99.90
34646;DHT22;20857;47.808;12.482;2023-07-29T07:58:55;19.90;99.90
34646;DHT22;20857;47.808;12.482;2023-07-29T08:01:21;20.00;99.90
34646;DHT22;20857;47.808;12.482;2023-07-29T08:03:47;19.60;99.90
34646;DHT22;20857;47.808;12.482;2023-07-29T08:06:12;19.40;99.90
34646;DHT22;20857;47.808;12.482;2023-07-29T08:08:38;19.30;99.90
34646;DHT22;20857;47.808;12.482;2023-07-29T08:11:03;19.30;99.90
34646;DHT22;20857;47.808;12.482;2023-07-29T08:13:31;19.30;99.90
34646;DHT22;20857;47.808;12.482;2023-07-29T08:15:56;19.20;99.90
34646;DHT22;20857;47.808;12.482;2023-07-29T08:18:22;19.20;99.90
34646;DHT22;20857;47.808;12.482;2023-07-29T08:20:55;19.30;99.90
34646;DHT22;20857;47.808;12.482;2023-07-29T08:23:24;19.50;99.90
34646;DHT22;20857;47.808;12.482;2023-07-29T08:25:53;19.60;99.90
34646;DHT22;20857;47.808;12.482;2023-07-29T08:28:19;19.70;99.90
34646;DHT22;20857;47.808;12.482;2023-07-29T08:30:45;19.80;99.90
34646;DHT22;20857;47.808;12.482;2023-07-29T08:33:10;19.90;99.90
34646;DHT22;20857;47.808;12.482;2023-07-29T08:35:36;20.10;99.90
34646;DHT22;20857;47.808;12.482;2023-07-29T08:38:02;20.30;99.90
34646;DHT22;20857;47.808;12.482;2023-07-29T08:40:30;20.30;99.90
34646;DHT22;20857;47.808;12.482;2023-07-29T08:42:58;20.50;99.90
34646;DHT22;20857;47.808;12.482;2023-07-29T08:45:26;20.70;99.90
34646;DHT22;20857;47.808;12.482;2023-07-29T08:47:54;21.10;99.90
34646;DHT22;20857;47.808;12.482;2023-07-29T08:50:22;21.50;99.90
34646;DHT22;20857;47.808;12.482;2023-07-29T08:52:51;21.90;99.90
34646;DHT22;20857;47.808;12.482;2023-07-29T08:55:18;22.00;99.90
34646;DHT22;20857;47.808;12.482;2023-07-29T08:57:44;22.10;99.90
34646;DHT22;20857;47.808;12.482;2023-07-29T09:00:11;22.00;99.90
34646;DHT22;20857;47.808;12.482;2023-07-29T09:02:37;22.10;99.90
34646;DHT22;20857;47.808;12.482;2023-07-29T09:05:02;22.10;99.90
34646;DHT22;20857;47.808;12.482;2023-07-29T09:07:29;22.10;99.90
34646;DHT22;20857;47.808;12.482;2023-07-29T09:09:54;22.10;99.90
34646;DHT22;20857;47.808;12.482;2023-07-29T09:12:20;22.10;99.90
34646;DHT22;20857;47.808;12.482;2023-07-29T09:14:46;22.10;99.90
34646;DHT22;20857;47.808;12.482;2023-07-29T09:17:12;22.00;99.90
34646;DHT22;20857;47.808;12.482;2023-07-29T09:19:39;22.00;99.90
34646;DHT22;20857;47.808;12.482;2023-07-29T09:22:05;22.00;99.90
34646;DHT22;20857;47.808;12.482;2023-07-29T09:24:42;21.90;99.90
34646;DHT22;20857;47.808;12.482;2023-07-29T09:27:07;21.70;99.90
34646;DHT22;20857;47.808;12.482;2023-07-29T09:29:36;21.50;99.90
34646;DHT22;20857;47.808;12.482;2023-07-29T09:32:20;21.40;99.90
34646;DHT22;20857;47.808;12.482;2023-07-29T09:34:46;21.40;99.90
34646;DHT22;20857;47.808;12.482;2023-07-29T09:37:24;21.30;99.90
34646;DHT22;20857;47.808;12.482;2023-07-29T09:39:50;21.20;99.90
34646;DHT22;20857;47.808;12.482;2023-07-29T09:42:18;21.10;99.90
34646;DHT22;20857;47.808;12.482;2023-07-29T09:44:44;21.00;99.90
34646;DHT22;20857;47.808;12.482;2023-07-29T09:47:22;21.00;99.90
34646;DHT22;20857;47.808;12.482;2023-07-29T09:49:48;21.00;99.90
34646;DHT22;20857;47.808;12.482;2023-07-29T09:52:22;21.20;99.90
34646;DHT22;20857;47.808;12.482;2023-07-29T09:54:48;21.40;99.90
34646;DHT22;20857;47.808;12.482;2023-07-29T09:57:14;21.60;99.90
34646;DHT22;20857;47.808;12.482;2023-07-29T09:59:40;21.90;99.90
34646;DHT22;20857;47.808;12.482;2023-07-29T10:02:13;22.00;99.90
34646;DHT22;20857;47.808;12.482;2023-07-29T10:04:38;22.20;99.90
34646;DHT22;20857;47.808;12.482;2023-07-29T10:07:05;22.40;99.90
34646;DHT22;20857;47.808;12.482;2023-07-29T10:09:31;22.60;99.90
34646;DHT22;20857;47.808;12.482;2023-07-29T10:11:57;22.90;99.90
34646;DHT22;20857;47.808;12.482;2023-07-29T10:14:23;23.00;99.90
34646;DHT22;20857;47.808;12.482;2023-07-29T10:16:49;23.10;99.90
34646;DHT22;20857;47.808;12.482;2023-07-29T10:19:16;23.30;99.90
34646;DHT22;20857;47.808;12.482;2023-07-29T10:21:44;23.40;99.90
34646;DHT22;20857;47.808;12.482;2023-07-29T10:24:15;23.60;99.90
34646;DHT22;20857;47.808;12.482;2023-07-29T10:26:46;23.50;99.90
34646;DHT22;20857;47.808;12.482;2023-07-29T10:29:13;23.60;99.90
34646;DHT22;20857;47.808;12.482;2023-07-29T10:31:43;23.60;99.90
34646;DHT22;20857;47.808;12.482;2023-07-29T10:34:09;23.70;99.90
34646;DHT22;20857;47.808;12.482;2023-07-29T10:36:35;23.90;99.90
34646;DHT22;20857;47.808;12.482;2023-07-29T10:39:01;24.10;99.90
34646;DHT22;20857;47.808;12.482;2023-07-29T10:41:58;24.20;99.90
34646;DHT22;20857;47.808;12.482;2023-07-29T10:47:31;24.50;99.90
34646;DHT22;20857;47.808;12.482;2023-07-29T10:49:58;24.60;99.90
34646;DHT22;20857;47.808;12.482;2023-07-29T10:54:55;24.80;99.90
34646;DHT22;20857;47.808;12.482;2023-07-29T10:57:33;24.90;99.90
34646;DHT22;20857;47.808;12.482;2023-07-29T10:59:59;25.10;99.90
34646;DHT22;20857;47.808;12.482;2023-07-29T11:02:36;25.40;99.90
34646;DHT22;20857;47.808;12.482;2023-07-29T11:05:17;25.80;99.90
34646;DHT22;20857;47.808;12.482;2023-07-29T11:07:47;26.40;99.90
34646;DHT22;20857;47.808;12.482;2023-07-29T11:10:14;26.70;99.90
34646;DHT22;20857;47.808;12.482;2023-07-29T11:12:49;27.10;99.90
34646;DHT22;20857;47.808;12.482;2023-07-29T11:18:00;27.20;99.90
34646;DHT22;20857;47.808;12.482;2023-07-29T11:20:30;27.00;99.90
34646;DHT22;20857;47.808;12.482;2023-07-29T11:22:57;26.90;99.90
34646;DHT22;20857;47.808;12.482;2023-07-29T11:25:25;26.80;99.90
34646;DHT22;20857;47.808;12.482;2023-07-29T11:27:54;26.60;99.90
34646;DHT22;20857;47.808;12.482;2023-07-29T11:30:20;26.60;99.90
34646;DHT22;20857;47.808;12.482;2023-07-29T11:32:46;26.60;99.90
34646;DHT22;20857;47.808;12.482;2023-07-29T11:35:14;26.80;99.90
34646;DHT22;20857;47.808;12.482;2023-07-29T11:37:45;26.90;99.90
34646;DHT22;20857;47.808;12.482;2023-07-29T11:40:18;27.30;99.90
34646;DHT22;20857;47.808;12.482;2023-07-29T11:42:45;27.50;99.90
34646;DHT22;20857;47.808;12.482;2023-07-29T11:45:11;27.60;99.90
34646;DHT22;20857;47.808;12.482;2023-07-29T11:47:36;27.60;99.90
34646;DHT22;20857;47.808;12.482;2023-07-29T11:50:07;27.50;99.90
34646;DHT22;20857;47.808;12.482;2023-07-29T11:52:35;27.70;99.70
34646;DHT22;20857;47.808;12.482;2023-07-29T11:55:03;27.70;99.90
34646;DHT22;20857;47.808;12.482;2023-07-29T11:57:36;27.30;99.90
34646;DHT22;20857;47.808;12.482;2023-07-29T12:00:04;27.20;99.90
34646;DHT22;20857;47.808;12.482;2023-07-29T12:02:32;27.10;99.90
34646;DHT22;20857;47.808;12.482;2023-07-29T12:04:58;27.20;99.90
34646;DHT22;20857;47.808;12.482;2023-07-29T12:07:24;27.00;99.90
34646;DHT22;20857;47.808;12.482;2023-07-29T12:09:50;27.30;99.90
34646;DHT22;20857;47.808;12.482;2023-07-29T12:12:17;27.30;99.90
34646;DHT22;20857;47.808;12.482;2023-07-29T12:14:46;27.20;99.90
34646;DHT22;20857;47.808;12.482;2023-07-29T12:17:12;26.60;99.90
34646;DHT22;20857;47.808;12.482;2023-07-29T12:19:39;26.10;99.90
34646;DHT22;20857;47.808;12.482;2023-07-29T12:22:06;25.80;99.90
34646;DHT22;20857;47.808;12.482;2023-07-29T12:24:35;25.80;99.90
34646;DHT22;20857;47.808;12.482;2023-07-29T12:27:01;26.00;99.90
34646;DHT22;20857;47.808;12.482;2023-07-29T12:29:27;26.30;99.90
34646;DHT22;20857;47.808;12.482;2023-07-29T12:32:01;26.20;99.90
34646;DHT22;20857;47.808;12.482;2023-07-29T12:34:30;26.50;99.90
34646;DHT22;20857;47.808;12.482;2023-07-29T12:36:58;26.50;99.90
34646;DHT22;20857;47.808;12.482;2023-07-29T12:39:28;26.60;99.90
34646;DHT22;20857;47.808;12.482;2023-07-29T12:41:55;26.90;99.90
34646;DHT22;20857;47.808;12.482;2023-07-29T12:44:23;27.10;99.90
34646;DHT22;20857;47.808;12.482;2023-07-29T12:46:48;27.80;99.90
34646;DHT22;20857;47.808;12.482;2023-07-29T12:49:14;28.60;99.90
34646;DHT22;20857;47.808;12.482;2023-07-29T12:51:40;28.30;99.90
34646;DHT22;20857;47.808;12.482;2023-07-29T12:54:05;28.50;99.90
34646;DHT22;20857;47.808;12.482;2023-07-29T12:56:32;29.60;99.90
34646;DHT22;20857;47.808;12.482;2023-07-29T12:58:58;30.90;99.90
34646;DHT22;20857;47.808;12.482;2023-07-29T13:01:24;31.90;99.10
34646;DHT22;20857;47.808;12.482;2023-07-29T13:03:50;32.70;97.90
34646;DHT22;20857;47.808;12.482;2023-07-29T13:06:16;32.30;96.30
34646;DHT22;20857;47.808;12.482;2023-07-29T13:08:42;31.60;96.90
34646;DHT22;20857;47.808;12.482;2023-07-29T13:11:08;30.60;98.50
34646;DHT22;20857;47.808;12.482;2023-07-29T13:13:33;31.60;99.10
34646;DHT22;20857;47.808;12.482;2023-07-29T13:15:59;32.40;96.70
34646;DHT22;20857;47.808;12.482;2023-07-29T13:18:25;31.80;97.20
34646;DHT22;20857;47.808;12.482;2023-07-29T13:20:50;30.90;97.40
34646;DHT22;20857;47.808;12.482;2023-07-29T13:23:16;30.90;97.50
34646;DHT22;20857;47.808;12.482;2023-07-29T13:25:42;31.50;96.50
34646;DHT22;20857;47.808;12.482;2023-07-29T13:28:10;31.00;96.90
34646;DHT22;20857;47.808;12.482;2023-07-29T13:30:36;31.10;97.80
34646;DHT22;20857;47.808;12.482;2023-07-29T13:33:01;31.40;97.50
34646;DHT22;20857;47.808;12.482;2023-07-29T13:35:27;31.80;97.70
34646;DHT22;20857;47.808;12.482;2023-07-29T13:37:53;32.50;96.90
34646;DHT22;20857;47.808;12.482;2023-07-29T13:40:18;32.10;98.00
34646;DHT22;20857;47.808;12.482;2023-07-29T13:42:44;32.30;96.60
34646;DHT22;20857;47.808;12.482;2023-07-29T13:45:10;31.30;97.50
34646;DHT22;20857;47.808;12.482;2023-07-29T13:47:35;31.20;97.80
34646;DHT22;20857;47.808;12.482;2023-07-29T13:50:01;31.30;97.40
34646;DHT22;20857;47.808;12.482;2023-07-29T13:52:27;31.40;97.50
34646;DHT22;20857;47.808;12.482;2023-07-29T13:54:53;30.90;97.80
34646;DHT22;20857;47.808;12.482;2023-07-29T13:57:18;29.30;99.10
34646;DHT22;20857;47.808;12.482;2023-07-29T13:59:44;27.40;99.90
34646;DHT22;20857;47.808;12.482;2023-07-29T14:02:09;26.30;99.90
34646;DHT22;20857;47.808;12.482;2023-07-29T14:04:35;27.10;99.90
34646;DHT22;20857;47.808;12.482;2023-07-29T14:07:00;28.60;99.90
34646;DHT22;20857;47.808;12.482;2023-07-29T14:09:27;28.50;99.90
34646;DHT22;20857;47.808;12.482;2023-07-29T14:11:54;27.90;99.90
34646;DHT22;20857;47.808;12.482;2023-07-29T14:14:20;28.10;99.90
34646;DHT22;20857;47.808;12.482;2023-07-29T14:16:45;29.10;99.90
34646;DHT22;20857;47.808;12.482;2023-07-29T14:19:12;28.60;99.90
34646;DHT22;20857;47.808;12.482;2023-07-29T14:21:38;27.40;99.90
34646;DHT22;20857;47.808;12.482;2023-07-29T14:24:05;26.50;99.90
34646;DHT22;20857;47.808;12.482;2023-07-29T14:26:31;25.40;99.90
34646;DHT22;20857;47.808;12.482;2023-07-29T14:28:56;24.60;99.90
34646;DHT22;20857;47.808;12.482;2023-07-29T14:31:22;23.90;99.90
34646;DHT22;20857;47.808;12.482;2023-07-29T14:33:48;23.30;99.90
34646;DHT22;20857;47.808;12.482;2023-07-29T14:36:15;22.70;99.90
34646;DHT22;20857;47.808;12.482;2023-07-29T14:38:41;22.30;99.90
34646;DHT22;20857;47.808;12.482;2023-07-29T14:41:06;22.10;99.90
34646;DHT22;20857;47.808;12.482;2023-07-29T14:43:32;21.80;99.90
34646;DHT22;20857;47.808;12.482;2023-07-29T14:45:57;21.60;99.90
34646;DHT22;20857;47.808;12.482;2023-07-29T14:48:23;21.30;99.90
34646;DHT22;20857;47.808;12.482;2023-07-29T14:50:49;20.50;99.90
34646;DHT22;20857;47.808;12.482;2023-07-29T14:53:14;19.90;99.90
34646;DHT22;20857;47.808;12.482;2023-07-29T14:55:40;19.50;99.90
34646;DHT22;20857;47.808;12.482;2023-07-29T14:58:05;19.40;99.90
34646;DHT22;20857;47.808;12.482;2023-07-29T15:00:31;19.60;99.90
34646;DHT22;20857;47.808;12.482;2023-07-29T15:02:57;20.00;99.90
34646;DHT22;20857;47.808;12.482;2023-07-29T15:05:22;20.40;99.90
34646;DHT22;20857;47.808;12.482;2023-07-29T15:07:48;20.70;99.90
34646;DHT22;20857;47.808;12.482;2023-07-29T15:10:15;20.70;99.90
34646;DHT22;20857;47.808;12.482;2023-07-29T15:12:44;20.60;99.90
34646;DHT22;20857;47.808;12.482;2023-07-29T15:15:10;20.30;99.90
34646;DHT22;20857;47.808;12.482;2023-07-29T15:17:36;20.20;99.90
34646;DHT22;20857;47.808;12.482;2023-07-29T15:20:02;20.10;99.90
34646;DHT22;20857;47.808;12.482;2023-07-29T15:22:29;20.20;99.90
34646;DHT22;20857;47.808;12.482;2023-07-29T15:24:55;20.20;99.90
34646;DHT22;20857;47.808;12.482;2023-07-29T15:27:20;20.10;99.90
34646;DHT22;20857;47.808;12.482;2023-07-29T15:29:47;20.10;99.90
34646;DHT22;20857;47.808;12.482;2023-07-29T15:32:13;20.10;99.90